PWSweather.com
Personal Weather Stations
Station Observations
DW1039
Liberty & Fairfield Townships, Hamilton, OH 45011

Liberty & Fairfield TownshipsHamilton, OH 45011

Lat: 39.3933, Lon: -84.477

Elevation: 780

Station Type: Davis Vantage Pro2 (Daytime Fan Aspirated)

http://www.lfweathercenter.com/

High Low Average
Temperature 47.0°F8.3°C 33.3°F0.7°C 41.0°F5.0°C
Dew Point 45.4°F7.4°C 28.1°F-2.2°C 36.8°F2.7°C
Winds 9.0 mph 14.5 kmh Calm Calm 2.0 mph E3.2 kmh E
Wind Gusts 13.0 mph20.9 kmh -- 4.0 mph6.4 kmh
Humidity 94% 69% 85%
Pressure 29.93 in1013.5 mb 29.46 in997.6 mb -
Precipitation 0.00 in0.0 mm - -
Hour Temp Dew Point Humidity Winds Wind Gusts Pressure Precip Precip Rate Daily Precip Total
12:00 AM 37.8°F3.2°C 29.3°F-1.5°C 71% Calm Calm -- 29.95 in1014.2 mb 0.00 in0.0 mm 0.00 in/hr0.0 mm/hr 0.00 in0.0 mm
12:10 AM 37.7°F3.2°C 29.2°F-1.6°C 71% Calm Calm -- 29.94 in1013.9 mb 0.00 in0.0 mm 0.00 in/hr0.0 mm/hr 0.00 in0.0 mm
12:20 AM 37.4°F3.0°C 29.2°F-1.6°C 72% Calm Calm 1.0 mph1.6 kmh 29.95 in1014.2 mb 0.00 in0.0 mm 0.00 in/hr0.0 mm/hr 0.00 in0.0 mm
12:30 AM 37.9°F3.3°C 29.4°F-1.4°C 71% Calm Calm 1.0 mph1.6 kmh 29.94 in1013.9 mb 0.00 in0.0 mm 0.00 in/hr0.0 mm/hr 0.00 in0.0 mm
12:40 AM 37.8°F3.2°C 29.3°F-1.5°C 71% Calm Calm 1.0 mph1.6 kmh 29.94 in1013.9 mb 0.00 in0.0 mm 0.00 in/hr0.0 mm/hr 0.00 in0.0 mm
12:50 AM 37.0°F2.8°C 28.8°F-1.8°C 72% Calm Calm 1.0 mph1.6 kmh 29.94 in1013.9 mb 0.00 in0.0 mm 0.00 in/hr0.0 mm/hr 0.00 in0.0 mm
01:00 AM 36.6°F2.6°C 29.4°F-1.4°C 75% 1.0 mph SE1.6 kmh SE 1.0 mph1.6 kmh 29.93 in1013.5 mb 0.00 in0.0 mm 0.00 in/hr0.0 mm/hr 0.00 in0.0 mm
01:10 AM 38.2°F3.4°C 30.0°F-1.1°C 72% 2.0 mph SSE3.2 kmh SSE 3.0 mph4.8 kmh 29.93 in1013.5 mb 0.00 in0.0 mm 0.00 in/hr0.0 mm/hr 0.00 in0.0 mm
01:20 AM 37.5°F3.1°C 29.3°F-1.5°C 72% Calm Calm 1.0 mph1.6 kmh 29.92 in1013.2 mb 0.00 in0.0 mm 0.00 in/hr0.0 mm/hr 0.00 in0.0 mm
01:30 AM 38.1°F3.4°C 29.5°F-1.4°C 71% 2.0 mph SE3.2 kmh SE 6.0 mph9.7 kmh 29.91 in1012.9 mb 0.00 in0.0 mm 0.00 in/hr0.0 mm/hr 0.00 in0.0 mm
01:40 AM 38.6°F3.7°C 29.3°F-1.5°C 69% Calm Calm 3.0 mph4.8 kmh 29.91 in1012.9 mb 0.00 in0.0 mm 0.00 in/hr0.0 mm/hr 0.00 in0.0 mm
01:50 AM 37.7°F3.2°C 29.5°F-1.4°C 72% Calm Calm 3.0 mph4.8 kmh 29.91 in1012.9 mb 0.00 in0.0 mm 0.00 in/hr0.0 mm/hr 0.00 in0.0 mm
02:00 AM 37.5°F3.1°C 29.3°F-1.5°C 72% Calm Calm 2.0 mph3.2 kmh 29.91 in1012.9 mb 0.00 in0.0 mm 0.00 in/hr0.0 mm/hr 0.00 in0.0 mm
02:10 AM 37.3°F2.9°C 29.1°F-1.6°C 72% Calm Calm 1.0 mph1.6 kmh 29.91 in1012.9 mb 0.00 in0.0 mm 0.00 in/hr0.0 mm/hr 0.00 in0.0 mm
02:20 AM 35.8°F2.1°C 28.7°F-1.8°C 75% Calm Calm -- 29.90 in1012.5 mb 0.00 in0.0 mm 0.00 in/hr0.0 mm/hr 0.00 in0.0 mm
02:30 AM 36.0°F2.2°C 29.2°F-1.6°C 76% 2.0 mph SE3.2 kmh SE 3.0 mph4.8 kmh 29.90 in1012.5 mb 0.00 in0.0 mm 0.00 in/hr0.0 mm/hr 0.00 in0.0 mm
02:40 AM 34.7°F1.5°C 28.6°F-1.9°C 78% 2.0 mph NE3.2 kmh NE 3.0 mph4.8 kmh 29.89 in1012.2 mb 0.00 in0.0 mm 0.00 in/hr0.0 mm/hr 0.00 in0.0 mm
02:50 AM 34.7°F1.5°C 28.9°F-1.7°C 79% Calm Calm 3.0 mph4.8 kmh 29.89 in1012.2 mb 0.00 in0.0 mm 0.00 in/hr0.0 mm/hr 0.00 in0.0 mm
03:00 AM 34.9°F1.6°C 29.1°F-1.6°C 79% 1.0 mph NE1.6 kmh NE 2.0 mph3.2 kmh 29.89 in1012.2 mb 0.00 in0.0 mm 0.00 in/hr0.0 mm/hr 0.00 in0.0 mm
03:10 AM 35.0°F1.7°C 28.9°F-1.7°C 78% Calm Calm -- 29.89 in1012.2 mb 0.00 in0.0 mm 0.00 in/hr0.0 mm/hr 0.00 in0.0 mm
03:20 AM 35.5°F1.9°C 29.0°F-1.7°C 77% Calm Calm -- 29.89 in1012.2 mb 0.00 in0.0 mm 0.00 in/hr0.0 mm/hr 0.00 in0.0 mm
03:30 AM 35.1°F1.7°C 28.6°F-1.9°C 77% Calm Calm 2.0 mph3.2 kmh 29.89 in1012.2 mb 0.00 in0.0 mm 0.00 in/hr0.0 mm/hr 0.00 in0.0 mm
03:40 AM 33.3°F0.7°C 28.1°F-2.2°C 81% 2.0 mph ENE3.2 kmh ENE 2.0 mph3.2 kmh 29.88 in1011.9 mb 0.00 in0.0 mm 0.00 in/hr0.0 mm/hr 0.00 in0.0 mm
03:50 AM 33.4°F0.8°C 28.5°F-1.9°C 82% 4.0 mph NE6.4 kmh NE 4.0 mph6.4 kmh 29.87 in1011.5 mb 0.00 in0.0 mm 0.00 in/hr0.0 mm/hr 0.00 in0.0 mm
04:00 AM 34.2°F1.2°C 29.0°F-1.7°C 81% 4.0 mph NNE6.4 kmh NNE 6.0 mph9.7 kmh 29.85 in1010.8 mb 0.00 in0.0 mm 0.00 in/hr0.0 mm/hr 0.00 in0.0 mm
04:10 AM 35.0°F1.7°C 29.2°F-1.6°C 79% 4.0 mph NNE6.4 kmh NNE 6.0 mph9.7 kmh 29.84 in1010.5 mb 0.00 in0.0 mm 0.00 in/hr0.0 mm/hr 0.00 in0.0 mm
04:20 AM 35.5°F1.9°C 29.3°F-1.5°C 78% Calm Calm 6.0 mph9.7 kmh 29.84 in1010.5 mb 0.00 in0.0 mm 0.00 in/hr0.0 mm/hr 0.00 in0.0 mm
04:30 AM 35.3°F1.8°C 29.1°F-1.6°C 78% Calm Calm 2.0 mph3.2 kmh 29.83 in1010.2 mb 0.00 in0.0 mm 0.00 in/hr0.0 mm/hr 0.00 in0.0 mm
04:40 AM 34.8°F1.6°C 28.7°F-1.8°C 78% Calm Calm 1.0 mph1.6 kmh 29.83 in1010.2 mb 0.00 in0.0 mm 0.00 in/hr0.0 mm/hr 0.00 in0.0 mm
04:50 AM 34.3°F1.3°C 28.8°F-1.8°C 80% Calm Calm 2.0 mph3.2 kmh 29.83 in1010.2 mb 0.00 in0.0 mm 0.00 in/hr0.0 mm/hr 0.00 in0.0 mm
05:00 AM 34.8°F1.6°C 29.3°F-1.5°C 80% Calm Calm 2.0 mph3.2 kmh 29.82 in1009.8 mb 0.00 in0.0 mm 0.00 in/hr0.0 mm/hr 0.00 in0.0 mm
05:10 AM 35.7°F2.1°C 29.5°F-1.4°C 78% Calm Calm 2.0 mph3.2 kmh 29.82 in1009.8 mb 0.00 in0.0 mm 0.00 in/hr0.0 mm/hr 0.00 in0.0 mm
05:20 AM 36.3°F2.4°C 30.1°F-1.1°C 78% Calm Calm 4.0 mph6.4 kmh 29.81 in1009.5 mb 0.00 in0.0 mm 0.00 in/hr0.0 mm/hr 0.00 in0.0 mm
05:30 AM 37.3°F2.9°C 30.4°F-0.9°C 76% Calm Calm -- 29.80 in1009.1 mb 0.00 in0.0 mm 0.00 in/hr0.0 mm/hr 0.00 in0.0 mm
05:40 AM 37.6°F3.1°C 31.1°F-0.5°C 77% Calm Calm 1.0 mph1.6 kmh 29.80 in1009.1 mb 0.00 in0.0 mm 0.00 in/hr0.0 mm/hr 0.00 in0.0 mm
05:50 AM 37.7°F3.2°C 30.5°F-0.8°C 75% Calm Calm -- 29.80 in1009.1 mb 0.00 in0.0 mm 0.00 in/hr0.0 mm/hr 0.00 in0.0 mm
06:00 AM 37.8°F3.2°C 30.9°F-0.6°C 76% Calm Calm 1.0 mph1.6 kmh 29.79 in1008.8 mb 0.00 in0.0 mm 0.00 in/hr0.0 mm/hr 0.00 in0.0 mm
06:10 AM 38.5°F3.6°C 31.3°F-0.4°C 75% Calm Calm 4.0 mph6.4 kmh 29.78 in1008.5 mb 0.00 in0.0 mm 0.00 in/hr0.0 mm/hr 0.00 in0.0 mm
06:20 AM 39.2°F4.0°C 31.3°F-0.4°C 73% 3.0 mph ENE4.8 kmh ENE 7.0 mph11.3 kmh 29.76 in1007.8 mb 0.00 in0.0 mm 0.00 in/hr0.0 mm/hr 0.00 in0.0 mm
06:30 AM 39.6°F4.2°C 32.0°F0.0°C 74% Calm Calm 4.0 mph6.4 kmh 29.76 in1007.8 mb 0.00 in0.0 mm 0.00 in/hr0.0 mm/hr 0.00 in0.0 mm
06:40 AM 40.0°F4.4°C 31.7°F-0.2°C 72% Calm Calm 5.0 mph8.0 kmh 29.76 in1007.8 mb 0.00 in0.0 mm 0.00 in/hr0.0 mm/hr 0.00 in0.0 mm
06:50 AM 40.1°F4.5°C 31.8°F-0.1°C 72% 2.0 mph ESE3.2 kmh ESE 3.0 mph4.8 kmh 29.76 in1007.8 mb 0.00 in0.0 mm 0.00 in/hr0.0 mm/hr 0.00 in0.0 mm
07:00 AM 40.2°F4.6°C 31.9°F-0.1°C 72% Calm Calm -- 29.76 in1007.8 mb 0.00 in0.0 mm 0.00 in/hr0.0 mm/hr 0.00 in0.0 mm
07:10 AM 40.4°F4.7°C 32.1°F0.1°C 72% Calm Calm 1.0 mph1.6 kmh 29.75 in1007.5 mb 0.00 in0.0 mm 0.00 in/hr0.0 mm/hr 0.00 in0.0 mm
07:20 AM 40.7°F4.8°C 32.0°F0.0°C 71% 1.0 mph ENE1.6 kmh ENE 1.0 mph1.6 kmh 29.75 in1007.5 mb 0.00 in0.0 mm 0.00 in/hr0.0 mm/hr 0.00 in0.0 mm
07:30 AM 41.1°F5.1°C 32.4°F0.2°C 71% Calm Calm 2.0 mph3.2 kmh 29.75 in1007.5 mb 0.00 in0.0 mm 0.00 in/hr0.0 mm/hr 0.00 in0.0 mm
07:40 AM 41.0°F5.0°C 32.0°F0.0°C 70% Calm Calm -- 29.75 in1007.5 mb 0.00 in0.0 mm 0.00 in/hr0.0 mm/hr 0.00 in0.0 mm
07:50 AM 41.2°F5.1°C 32.2°F0.1°C 70% Calm Calm 1.0 mph1.6 kmh 29.75 in1007.5 mb 0.00 in0.0 mm 0.00 in/hr0.0 mm/hr 0.00 in0.0 mm
08:00 AM 40.6°F4.8°C 34.0°F1.1°C 77% Calm Calm 2.0 mph3.2 kmh 29.75 in1007.5 mb 0.00 in0.0 mm 0.00 in/hr0.0 mm/hr 0.00 in0.0 mm
08:10 AM 40.2°F4.6°C 34.2°F1.2°C 79% Calm Calm -- 29.76 in1007.8 mb 0.00 in0.0 mm 0.00 in/hr0.0 mm/hr 0.00 in0.0 mm
08:20 AM 39.9°F4.4°C 34.6°F1.4°C 81% Calm Calm 1.0 mph1.6 kmh 29.76 in1007.8 mb 0.00 in0.0 mm 0.00 in/hr0.0 mm/hr 0.00 in0.0 mm
08:30 AM 40.0°F4.4°C 34.0°F1.1°C 79% Calm Calm 3.0 mph4.8 kmh 29.75 in1007.5 mb 0.00 in0.0 mm 0.00 in/hr0.0 mm/hr 0.00 in0.0 mm
08:40 AM 40.0°F4.4°C 34.3°F1.3°C 80% Calm Calm 3.0 mph4.8 kmh 29.75 in1007.5 mb 0.00 in0.0 mm 0.00 in/hr0.0 mm/hr 0.00 in0.0 mm
08:50 AM 39.8°F4.3°C 34.5°F1.4°C 81% 3.0 mph E4.8 kmh E 3.0 mph4.8 kmh 29.75 in1007.5 mb 0.01 in0.3 mm 0.06 in/hr1.5 mm/hr 0.01 in0.3 mm
09:00 AM 39.4°F4.1°C 34.7°F1.5°C 83% 3.0 mph ENE4.8 kmh ENE 6.0 mph9.7 kmh 29.74 in1007.1 mb 0.02 in0.5 mm 0.01 in/hr0.3 mm/hr 0.02 in0.5 mm
09:10 AM 39.2°F4.0°C 35.1°F1.7°C 85% 3.0 mph E4.8 kmh E 5.0 mph8.0 kmh 29.74 in1007.1 mb 0.04 in1.0 mm 0.12 in/hr3.0 mm/hr 0.04 in1.0 mm
09:20 AM 39.1°F3.9°C 35.3°F1.8°C 86% 4.0 mph ENE6.4 kmh ENE 5.0 mph8.0 kmh 29.73 in1006.8 mb 0.04 in1.0 mm 0.00 in/hr0.0 mm/hr 0.04 in1.0 mm
09:30 AM 39.2°F4.0°C 35.4°F1.9°C 86% 3.0 mph E4.8 kmh E 4.0 mph6.4 kmh 29.73 in1006.8 mb 0.05 in1.3 mm 0.06 in/hr1.5 mm/hr 0.05 in1.3 mm
09:50 AM 39.2°F4.0°C 35.7°F2.1°C 87% 8.0 mph E12.9 kmh E 13.0 mph20.9 kmh 29.70 in1005.8 mb 0.05 in1.3 mm 0.00 in/hr0.0 mm/hr 0.05 in1.3 mm
10:00 AM 39.2°F4.0°C 36.0°F2.2°C 88% 5.0 mph E8.0 kmh E 10.0 mph16.1 kmh 29.70 in1005.8 mb 0.05 in1.3 mm 0.00 in/hr0.0 mm/hr 0.05 in1.3 mm
10:10 AM 39.3°F4.1°C 36.3°F2.4°C 89% 4.0 mph E6.4 kmh E 7.0 mph11.3 kmh 29.70 in1005.8 mb 0.05 in1.3 mm 0.00 in/hr0.0 mm/hr 0.05 in1.3 mm
10:20 AM 39.5°F4.2°C 36.5°F2.5°C 89% 2.0 mph E3.2 kmh E 9.0 mph14.5 kmh 29.70 in1005.8 mb 0.05 in1.3 mm 0.00 in/hr0.0 mm/hr 0.05 in1.3 mm
10:30 AM 39.8°F4.3°C 36.8°F2.7°C 89% 1.0 mph NE1.6 kmh NE 5.0 mph8.0 kmh 29.70 in1005.8 mb 0.04 in1.0 mm 0.00 in/hr0.0 mm/hr 0.05 in1.3 mm
10:40 AM 40.2°F4.6°C 37.2°F2.9°C 89% 2.0 mph E3.2 kmh E 6.0 mph9.7 kmh 29.69 in1005.4 mb 0.04 in1.0 mm 0.00 in/hr0.0 mm/hr 0.05 in1.3 mm
10:50 AM 40.3°F4.6°C 37.6°F3.1°C 90% 6.0 mph E9.7 kmh E 9.0 mph14.5 kmh 29.68 in1005.1 mb 0.06 in1.5 mm 0.12 in/hr3.0 mm/hr 0.07 in1.8 mm
11:00 AM 40.3°F4.6°C 37.9°F3.3°C 91% 6.0 mph NE9.7 kmh NE 11.0 mph17.7 kmh 29.68 in1005.1 mb 0.06 in1.5 mm 0.00 in/hr0.0 mm/hr 0.07 in1.8 mm
11:10 AM 40.9°F4.9°C 38.5°F3.6°C 91% 3.0 mph E4.8 kmh E 9.0 mph14.5 kmh 29.68 in1005.1 mb 0.05 in1.3 mm 0.00 in/hr0.0 mm/hr 0.07 in1.8 mm
11:20 AM 40.9°F4.9°C 38.2°F3.4°C 90% 6.0 mph ENE9.7 kmh ENE 9.0 mph14.5 kmh 29.67 in1004.7 mb 0.07 in1.8 mm 0.12 in/hr3.0 mm/hr 0.09 in2.3 mm
11:30 AM 40.9°F4.9°C 38.5°F3.6°C 91% 4.0 mph NE6.4 kmh NE 5.0 mph8.0 kmh 29.67 in1004.7 mb 0.08 in2.0 mm 0.06 in/hr1.5 mm/hr 0.10 in2.5 mm
11:40 AM 41.1°F5.1°C 38.7°F3.7°C 91% Calm Calm 4.0 mph6.4 kmh 29.66 in1004.4 mb 0.08 in2.0 mm 0.00 in/hr0.0 mm/hr 0.10 in2.5 mm
11:50 AM 41.2°F5.1°C 38.8°F3.8°C 91% Calm Calm 4.0 mph6.4 kmh 29.66 in1004.4 mb 0.08 in2.0 mm 0.00 in/hr0.0 mm/hr 0.10 in2.5 mm
12:00 PM 41.5°F5.3°C 39.4°F4.1°C 92% 3.0 mph E4.8 kmh E 7.0 mph11.3 kmh 29.65 in1004.1 mb 0.09 in2.3 mm 0.01 in/hr0.3 mm/hr 0.11 in2.8 mm
12:10 PM 41.8°F5.4°C 39.7°F4.3°C 92% 6.0 mph E9.7 kmh E 9.0 mph14.5 kmh 29.65 in1004.1 mb 0.12 in3.0 mm 0.18 in/hr4.6 mm/hr 0.14 in3.6 mm
12:21 PM 42.3°F5.7°C 40.2°F4.6°C 92% 5.0 mph E8.0 kmh E 10.0 mph16.1 kmh 29.63 in1003.4 mb 0.10 in2.5 mm 0.00 in/hr0.0 mm/hr 0.14 in3.6 mm
12:31 PM 42.4°F5.8°C 40.3°F4.6°C 92% 9.0 mph E14.5 kmh E 12.0 mph19.3 kmh 29.62 in1003.0 mb 0.10 in2.5 mm 0.00 in/hr0.0 mm/hr 0.14 in3.6 mm
12:40 PM 42.5°F5.8°C 40.3°F4.6°C 92% 4.0 mph E6.4 kmh E 10.0 mph16.1 kmh 29.60 in1002.4 mb 0.09 in2.3 mm 0.00 in/hr0.0 mm/hr 0.14 in3.6 mm
12:50 PM 42.9°F6.1°C 41.0°F5.0°C 93% 5.0 mph E8.0 kmh E 10.0 mph16.1 kmh 29.59 in1002.0 mb 0.08 in2.0 mm 0.00 in/hr0.0 mm/hr 0.14 in3.6 mm
01:01 PM 43.2°F6.2°C 41.3°F5.2°C 93% 5.0 mph ESE8.0 kmh ESE 11.0 mph17.7 kmh 29.58 in1001.7 mb 0.06 in1.5 mm 0.00 in/hr0.0 mm/hr 0.14 in3.6 mm
01:10 PM 43.5°F6.4°C 41.6°F5.3°C 93% Calm Calm 10.0 mph16.1 kmh 29.57 in1001.4 mb 0.04 in1.0 mm 0.00 in/hr0.0 mm/hr 0.14 in3.6 mm
01:20 PM 43.7°F6.5°C 41.8°F5.4°C 93% Calm Calm 7.0 mph11.3 kmh 29.56 in1001.0 mb 0.03 in0.8 mm 0.00 in/hr0.0 mm/hr 0.14 in3.6 mm
01:30 PM 44.0°F6.7°C 42.1°F5.6°C 93% 1.0 mph ESE1.6 kmh ESE 7.0 mph11.3 kmh 29.55 in1000.7 mb 0.02 in0.5 mm 0.00 in/hr0.0 mm/hr 0.14 in3.6 mm
01:40 PM 44.2°F6.8°C 42.3°F5.7°C 93% 5.0 mph E8.0 kmh E 10.0 mph16.1 kmh 29.53 in1000.0 mb 0.02 in0.5 mm 0.00 in/hr0.0 mm/hr 0.14 in3.6 mm
01:50 PM 44.9°F7.2°C 43.0°F6.1°C 93% 2.0 mph E3.2 kmh E 11.0 mph17.7 kmh 29.53 in1000.0 mb 0.01 in0.3 mm 0.00 in/hr0.0 mm/hr 0.14 in3.6 mm
02:00 PM 44.8°F7.1°C 42.9°F6.1°C 93% 5.0 mph ESE8.0 kmh ESE 10.0 mph16.1 kmh 29.52 in999.7 mb 0.00 in0.0 mm 0.00 in/hr0.0 mm/hr 0.14 in3.6 mm
02:10 PM 44.9°F7.2°C 43.0°F6.1°C 93% 1.0 mph E1.6 kmh E 8.0 mph12.9 kmh 29.51 in999.3 mb 0.00 in0.0 mm 0.00 in/hr0.0 mm/hr 0.14 in3.6 mm
02:20 PM 45.1°F7.3°C 43.2°F6.2°C 93% 4.0 mph ESE6.4 kmh ESE 9.0 mph14.5 kmh 29.51 in999.3 mb 0.01 in0.3 mm 0.06 in/hr1.5 mm/hr 0.15 in3.8 mm
02:30 PM 44.9°F7.2°C 43.0°F6.1°C 93% 2.0 mph E3.2 kmh E 10.0 mph16.1 kmh 29.51 in999.3 mb 0.02 in0.5 mm 0.06 in/hr1.5 mm/hr 0.16 in4.1 mm
02:40 PM 44.9°F7.2°C 43.0°F6.1°C 93% 3.0 mph ESE4.8 kmh ESE 5.0 mph8.0 kmh 29.50 in999.0 mb 0.02 in0.5 mm 0.00 in/hr0.0 mm/hr 0.16 in4.1 mm
02:50 PM 45.1°F7.3°C 43.2°F6.2°C 93% 7.0 mph ESE11.3 kmh ESE 8.0 mph12.9 kmh 29.49 in998.6 mb 0.03 in0.8 mm 0.06 in/hr1.5 mm/hr 0.17 in4.3 mm
03:01 PM 45.0°F7.2°C 43.1°F6.2°C 93% 1.0 mph E1.6 kmh E 6.0 mph9.7 kmh 29.49 in998.6 mb 0.05 in1.3 mm 0.02 in/hr0.5 mm/hr 0.19 in4.8 mm
03:10 PM 44.9°F7.2°C 43.3°F6.3°C 94% Calm Calm 7.0 mph11.3 kmh 29.50 in999.0 mb 0.05 in1.3 mm 0.00 in/hr0.0 mm/hr 0.19 in4.8 mm
03:20 PM 45.1°F7.3°C 43.5°F6.4°C 94% 3.0 mph ESE4.8 kmh ESE 7.0 mph11.3 kmh 29.49 in998.6 mb 0.04 in1.0 mm 0.00 in/hr0.0 mm/hr 0.19 in4.8 mm
03:30 PM 45.2°F7.3°C 43.6°F6.4°C 94% 5.0 mph E8.0 kmh E 7.0 mph11.3 kmh 29.49 in998.6 mb 0.04 in1.0 mm 0.00 in/hr0.0 mm/hr 0.19 in4.8 mm
03:40 PM 45.3°F7.4°C 43.7°F6.5°C 94% 4.0 mph ESE6.4 kmh ESE 5.0 mph8.0 kmh 29.49 in998.6 mb 0.03 in0.8 mm 0.00 in/hr0.0 mm/hr 0.19 in4.8 mm
03:50 PM 45.3°F7.4°C 43.7°F6.5°C 94% Calm Calm 6.0 mph9.7 kmh 29.48 in998.3 mb 0.02 in0.5 mm 0.00 in/hr0.0 mm/hr 0.19 in4.8 mm
04:00 PM 45.4°F7.4°C 43.8°F6.6°C 94% 2.0 mph E3.2 kmh E 5.0 mph8.0 kmh 29.48 in998.3 mb 0.01 in0.3 mm 0.00 in/hr0.0 mm/hr 0.19 in4.8 mm
04:10 PM 45.6°F7.6°C 44.0°F6.7°C 94% 1.0 mph E1.6 kmh E 2.0 mph3.2 kmh 29.47 in998.0 mb 0.00 in0.0 mm 0.00 in/hr0.0 mm/hr 0.19 in4.8 mm
04:20 PM 45.8°F7.7°C 44.2°F6.8°C 94% Calm Calm 3.0 mph4.8 kmh 29.47 in998.0 mb 0.01 in0.3 mm 0.06 in/hr1.5 mm/hr 0.20 in5.1 mm
04:30 PM 45.9°F7.7°C 44.3°F6.8°C 94% Calm Calm 3.0 mph4.8 kmh 29.47 in998.0 mb 0.01 in0.3 mm 0.00 in/hr0.0 mm/hr 0.20 in5.1 mm
04:40 PM 45.8°F7.7°C 44.2°F6.8°C 94% Calm Calm -- 29.47 in998.0 mb 0.01 in0.3 mm 0.00 in/hr0.0 mm/hr 0.20 in5.1 mm
04:50 PM 45.9°F7.7°C 44.3°F6.8°C 94% Calm Calm 1.0 mph1.6 kmh 29.48 in998.3 mb 0.01 in0.3 mm 0.00 in/hr0.0 mm/hr 0.20 in5.1 mm
05:01 PM 46.0°F7.8°C 44.4°F6.9°C 94% Calm Calm 1.0 mph1.6 kmh 29.47 in998.0 mb 0.01 in0.3 mm 0.00 in/hr0.0 mm/hr 0.20 in5.1 mm
05:10 PM 46.1°F7.8°C 44.5°F6.9°C 94% Calm Calm -- 29.47 in998.0 mb 0.01 in0.3 mm 0.00 in/hr0.0 mm/hr 0.20 in5.1 mm
05:20 PM 46.0°F7.8°C 44.4°F6.9°C 94% Calm Calm 2.0 mph3.2 kmh 29.47 in998.0 mb 0.00 in0.0 mm 0.00 in/hr0.0 mm/hr 0.20 in5.1 mm
05:30 PM 46.0°F7.8°C 44.4°F6.9°C 94% Calm Calm 1.0 mph1.6 kmh 29.47 in998.0 mb 0.00 in0.0 mm 0.00 in/hr0.0 mm/hr 0.20 in5.1 mm
05:40 PM 45.9°F7.7°C 44.3°F6.8°C 94% Calm Calm -- 29.47 in998.0 mb 0.00 in0.0 mm 0.00 in/hr0.0 mm/hr 0.20 in5.1 mm
05:50 PM 45.9°F7.7°C 44.3°F6.8°C 94% Calm Calm 1.0 mph1.6 kmh 29.47 in998.0 mb 0.00 in0.0 mm 0.00 in/hr0.0 mm/hr 0.20 in5.1 mm
06:00 PM 45.8°F7.7°C 44.2°F6.8°C 94% Calm Calm -- 29.47 in998.0 mb 0.00 in0.0 mm 0.00 in/hr0.0 mm/hr 0.20 in5.1 mm
06:10 PM 45.9°F7.7°C 44.3°F6.8°C 94% Calm Calm 1.0 mph1.6 kmh 29.48 in998.3 mb 0.00 in0.0 mm 0.00 in/hr0.0 mm/hr 0.20 in5.1 mm
06:20 PM 45.9°F7.7°C 44.3°F6.8°C 94% Calm Calm -- 29.48 in998.3 mb 0.00 in0.0 mm 0.00 in/hr0.0 mm/hr 0.20 in5.1 mm
06:30 PM 46.2°F7.9°C 44.6°F7.0°C 94% Calm Calm 1.0 mph1.6 kmh 29.47 in998.0 mb 0.00 in0.0 mm 0.00 in/hr0.0 mm/hr 0.20 in5.1 mm
06:40 PM 46.2°F7.9°C 44.6°F7.0°C 94% Calm Calm 1.0 mph1.6 kmh 29.47 in998.0 mb 0.00 in0.0 mm 0.00 in/hr0.0 mm/hr 0.20 in5.1 mm
06:50 PM 46.5°F8.1°C 44.9°F7.2°C 94% Calm Calm 3.0 mph4.8 kmh 29.47 in998.0 mb 0.00 in0.0 mm 0.00 in/hr0.0 mm/hr 0.20 in5.1 mm
07:01 PM 46.8°F8.2°C 45.2°F7.3°C 94% Calm Calm 2.0 mph3.2 kmh 29.47 in998.0 mb 0.00 in0.0 mm 0.00 in/hr0.0 mm/hr 0.20 in5.1 mm
07:10 PM 46.9°F8.3°C 45.3°F7.4°C 94% Calm Calm 4.0 mph6.4 kmh 29.47 in998.0 mb 0.00 in0.0 mm 0.00 in/hr0.0 mm/hr 0.20 in5.1 mm
07:20 PM 46.9°F8.3°C 45.3°F7.4°C 94% Calm Calm 2.0 mph3.2 kmh 29.47 in998.0 mb 0.00 in0.0 mm 0.00 in/hr0.0 mm/hr 0.20 in5.1 mm
07:30 PM 47.0°F8.3°C 45.4°F7.4°C 94% Calm Calm 1.0 mph1.6 kmh 29.46 in997.6 mb 0.00 in0.0 mm 0.00 in/hr0.0 mm/hr 0.20 in5.1 mm
07:40 PM 46.8°F8.2°C 45.2°F7.3°C 94% Calm Calm 1.0 mph1.6 kmh 29.46 in997.6 mb 0.00 in0.0 mm 0.00 in/hr0.0 mm/hr 0.20 in5.1 mm
07:50 PM 46.3°F7.9°C 44.7°F7.1°C 94% Calm Calm -- 29.46 in997.6 mb 0.00 in0.0 mm 0.00 in/hr0.0 mm/hr 0.20 in5.1 mm
08:00 PM 45.7°F7.6°C 44.1°F6.7°C 94% Calm Calm -- 29.45 in997.3 mb 0.00 in0.0 mm 0.00 in/hr0.0 mm/hr 0.20 in5.1 mm
08:10 PM 46.2°F7.9°C 44.9°F7.2°C 95% Calm Calm 1.0 mph1.6 kmh 29.46 in997.6 mb 0.00 in0.0 mm 0.00 in/hr0.0 mm/hr 0.20 in5.1 mm
08:20 PM 46.7°F8.2°C 45.4°F7.4°C 95% Calm Calm 1.0 mph1.6 kmh 29.46 in997.6 mb 0.00 in0.0 mm 0.00 in/hr0.0 mm/hr 0.20 in5.1 mm
08:30 PM 47.1°F8.4°C 45.7°F7.6°C 95% 4.0 mph SE6.4 kmh SE 4.0 mph6.4 kmh 29.46 in997.6 mb 0.00 in0.0 mm 0.00 in/hr0.0 mm/hr 0.20 in5.1 mm
08:40 PM 47.2°F8.4°C 45.8°F7.7°C 95% Calm Calm 5.0 mph8.0 kmh 29.45 in997.3 mb 0.00 in0.0 mm 0.00 in/hr0.0 mm/hr 0.20 in5.1 mm
08:50 PM 47.3°F8.5°C 45.9°F7.7°C 95% Calm Calm 3.0 mph4.8 kmh 29.45 in997.3 mb 0.00 in0.0 mm 0.00 in/hr0.0 mm/hr 0.20 in5.1 mm
09:00 PM 47.4°F8.6°C 46.0°F7.8°C 95% Calm Calm 1.0 mph1.6 kmh 29.45 in997.3 mb 0.00 in0.0 mm 0.00 in/hr0.0 mm/hr 0.20 in5.1 mm
09:10 PM 47.5°F8.6°C 46.1°F7.8°C 95% Calm Calm 2.0 mph3.2 kmh 29.45 in997.3 mb 0.00 in0.0 mm 0.00 in/hr0.0 mm/hr 0.20 in5.1 mm
09:20 PM 47.5°F8.6°C 46.1°F7.8°C 95% Calm Calm -- 29.45 in997.3 mb 0.00 in0.0 mm 0.00 in/hr0.0 mm/hr 0.20 in5.1 mm
09:30 PM 47.5°F8.6°C 46.1°F7.8°C 95% Calm Calm 3.0 mph4.8 kmh 29.45 in997.3 mb 0.00 in0.0 mm 0.00 in/hr0.0 mm/hr 0.20 in5.1 mm
09:40 PM 47.6°F8.7°C 46.2°F7.9°C 95% Calm Calm 4.0 mph6.4 kmh 29.46 in997.6 mb 0.00 in0.0 mm 0.00 in/hr0.0 mm/hr 0.20 in5.1 mm
09:50 PM 47.5°F8.6°C 46.1°F7.8°C 95% Calm Calm 1.0 mph1.6 kmh 29.46 in997.6 mb 0.00 in0.0 mm 0.00 in/hr0.0 mm/hr 0.20 in5.1 mm
10:00 PM 47.4°F8.6°C 46.0°F7.8°C 95% 2.0 mph S3.2 kmh S 2.0 mph3.2 kmh 29.45 in997.3 mb 0.00 in0.0 mm 0.00 in/hr0.0 mm/hr 0.20 in5.1 mm
10:10 PM 47.4°F8.6°C 46.0°F7.8°C 95% Calm Calm 3.0 mph4.8 kmh 29.45 in997.3 mb 0.00 in0.0 mm 0.00 in/hr0.0 mm/hr 0.20 in5.1 mm
10:20 PM 47.5°F8.6°C 46.1°F7.8°C 95% Calm Calm 3.0 mph4.8 kmh 29.45 in997.3 mb 0.00 in0.0 mm 0.00 in/hr0.0 mm/hr 0.20 in5.1 mm
10:30 PM 47.6°F8.7°C 46.2°F7.9°C 95% 2.0 mph S3.2 kmh S 5.0 mph8.0 kmh 29.45 in997.3 mb 0.01 in0.3 mm 0.06 in/hr1.5 mm/hr 0.21 in5.3 mm
10:40 PM 47.6°F8.7°C 46.2°F7.9°C 95% Calm Calm 3.0 mph4.8 kmh 29.45 in997.3 mb 0.01 in0.3 mm 0.00 in/hr0.0 mm/hr 0.21 in5.3 mm
10:50 PM 47.6°F8.7°C 46.2°F7.9°C 95% Calm Calm 3.0 mph4.8 kmh 29.45 in997.3 mb 0.01 in0.3 mm 0.00 in/hr0.0 mm/hr 0.21 in5.3 mm
11:01 PM 47.5°F8.6°C 46.1°F7.8°C 95% Calm Calm 6.0 mph9.7 kmh 29.45 in997.3 mb 0.01 in0.3 mm 0.00 in/hr0.0 mm/hr 0.21 in5.3 mm
11:10 PM 47.4°F8.6°C 46.0°F7.8°C 95% 4.0 mph SW6.4 kmh SW 6.0 mph9.7 kmh 29.44 in997.0 mb 0.01 in0.3 mm 0.00 in/hr0.0 mm/hr 0.21 in5.3 mm
11:20 PM 47.2°F8.4°C 46.1°F7.8°C 96% 5.0 mph SW8.0 kmh SW 6.0 mph9.7 kmh 29.44 in997.0 mb 0.01 in0.3 mm 0.00 in/hr0.0 mm/hr 0.21 in5.3 mm
11:30 PM 46.9°F8.3°C 45.6°F7.6°C 95% 3.0 mph SW4.8 kmh SW 7.0 mph11.3 kmh 29.44 in997.0 mb 0.00 in0.0 mm 0.00 in/hr0.0 mm/hr 0.21 in5.3 mm
11:40 PM 46.7°F8.2°C 45.6°F7.6°C 96% 2.0 mph SW3.2 kmh SW 10.0 mph16.1 kmh 29.45 in997.3 mb 0.01 in0.3 mm 0.06 in/hr1.5 mm/hr 0.22 in5.6 mm
11:50 PM 46.4°F8.0°C 45.1°F7.3°C 95% 3.0 mph SW4.8 kmh SW 10.0 mph16.1 kmh 29.45 in997.3 mb 0.02 in0.5 mm 0.06 in/hr1.5 mm/hr 0.23 in5.8 mm